Time;durP1;ratioP1;P1;durP2;ratioP2;P2;SDS_P1;SDS_P2;PMS_P1;PMS_P2;Temp;Humidity;BMP_temperature;BMP_pressure;BME280_temperature;BME280_humidity;BME280_pressure;Samples;Min_cycle;Max_cycle;Signal;HPM_P1;HPM_P2
2023/05/28 00:00:08;;;;;;;6.18;5.57;;;;;;;;;;5004678;28;20044;-66
2023/05/28 00:02:38;;;;;;;9.88;5.90;;;;;;;;;;5002949;28;20571;-66
2023/05/28 00:05:04;;;;;;;7.78;5.72;;;;;;;;;;5006586;28;20065;-66
2023/05/28 00:07:30;;;;;;;6.35;5.13;;;;;;;;;;5008114;28;20040;-66
2023/05/28 00:09:57;;;;;;;9.35;6.18;;;;;;;;;;4999144;28;20038;-65
2023/05/28 00:12:22;;;;;;;7.72;4.90;;;;;;;;;;5006875;28;20044;-66
2023/05/28 00:14:48;;;;;;;6.22;5.60;;;;;;;;;;4999809;28;20120;-66
2023/05/28 00:17:18;;;;;;;5.95;5.35;;;;;;;;;;5003098;28;20064;-66
2023/05/28 00:19:44;;;;;;;7.05;5.80;;;;;;;;;;5002950;28;20030;-64
2023/05/28 00:22:10;;;;;;;6.65;5.53;;;;;;;;;;4998715;28;20106;-64
2023/05/28 00:24:36;;;;;;;6.32;4.90;;;;;;;;;;5002441;28;20092;-66
2023/05/28 00:27:06;;;;;;;6.63;5.60;;;;;;;;;;5000751;28;20361;-66
2023/05/28 00:29:31;;;;;;;;;;;;;;;;;;4998370;28;20042;-64
2023/05/28 00:31:57;;;;;;;7.20;5.55;;;;;;;;;;4984581;28;19914;-65
2023/05/28 00:34:23;;;;;;;7.75;5.78;;;;;;;;;;5007538;28;20042;-66
2023/05/28 00:36:49;;;;;;;9.90;5.72;;;;;;;;;;4981903;28;20077;-66
2023/05/28 00:39:18;;;;;;;6.68;5.63;;;;;;;;;;4996173;28;20065;-66
2023/05/28 00:41:44;;;;;;;7.65;5.82;;;;;;;;;;5002981;28;20037;-65
2023/05/28 00:44:10;;;;;;;8.32;5.80;;;;;;;;;;4986551;28;20041;-65
2023/05/28 00:46:37;;;;;;;7.68;6.05;;;;;;;;;;5001433;28;20029;-65
2023/05/28 00:49:03;;;;;;;6.90;6.20;;;;;;;;;;4987528;28;20514;-65
2023/05/28 00:51:29;;;;;;;8.70;5.85;;;;;;;;;;4984892;28;20038;-65
2023/05/28 00:53:55;;;;;;;14.65;6.10;;;;;;;;;;5005181;28;20501;-66
2023/05/28 00:56:22;;;;;;;6.95;5.70;;;;;;;;;;4981803;28;20034;-66
2023/05/28 00:58:48;;;;;;;7.47;5.50;;;;;;;;;;4982056;28;20437;-65
2023/05/28 01:01:14;;;;;;;7.15;5.40;;;;;;;;;;5001247;28;20512;-65
2023/05/28 01:03:40;;;;;;;9.52;5.63;;;;;;;;;;5001388;28;20037;-66
2023/05/28 01:06:14;;;;;;;5.57;5.07;;;;;;;;;;5005689;28;20030;-65
2023/05/28 01:08:40;;;;;;;8.75;5.82;;;;;;;;;;4984167;28;20038;-65
2023/05/28 01:11:09;;;;;;;6.40;5.80;;;;;;;;;;4986962;28;20507;-65
2023/05/28 01:13:36;;;;;;;6.30;5.70;;;;;;;;;;4999126;28;20040;-65
2023/05/28 01:16:02;;;;;;;7.15;5.63;;;;;;;;;;5001808;28;20030;-65
2023/05/28 01:18:30;;;;;;;5.57;5.18;;;;;;;;;;5001825;28;20511;-65
2023/05/28 01:20:56;;;;;;;9.38;5.68;;;;;;;;;;4984580;28;20069;-65
2023/05/28 01:23:25;;;;;;;8.57;5.90;;;;;;;;;;4980858;28;20030;-65
2023/05/28 01:25:52;;;;;;;9.25;5.65;;;;;;;;;;4980670;28;20238;-65
2023/05/28 01:28:17;;;;;;;5.90;5.40;;;;;;;;;;4977393;28;20413;-65
2023/05/28 01:30:46;;;;;;;7.50;5.50;;;;;;;;;;5002623;28;20038;-65
2023/05/28 01:33:12;;;;;;;6.53;5.90;;;;;;;;;;4978506;28;20118;-65
2023/05/28 01:35:39;;;;;;;8.50;5.70;;;;;;;;;;5005556;28;20034;-65
2023/05/28 01:38:06;;;;;;;6.05;5.53;;;;;;;;;;4978222;28;20061;-66
2023/05/28 01:40:33;;;;;;;6.70;6.10;;;;;;;;;;4996256;28;20042;-65
2023/05/28 01:43:00;;;;;;;6.82;5.80;;;;;;;;;;5001545;28;20037;-65
2023/05/28 01:45:26;;;;;;;11.30;6.40;;;;;;;;;;4981990;28;20065;-65
2023/05/28 01:47:53;;;;;;;9.10;6.53;;;;;;;;;;4985895;28;20040;-65
2023/05/28 01:50:19;;;;;;;8.45;6.30;;;;;;;;;;4982573;28;20033;-65
2023/05/28 01:52:44;;;;;;;6.60;5.40;;;;;;;;;;4998358;28;20030;-65
2023/05/28 01:55:14;;;;;;;7.85;5.85;;;;;;;;;;4988314;28;20112;-65
2023/05/28 01:57:41;;;;;;;7.82;6.05;;;;;;;;;;4972440;28;20088;-65
2023/05/28 02:00:09;;;;;;;7.65;6.75;;;;;;;;;;4983138;28;20033;-65
2023/05/28 02:02:42;;;;;;;7.00;6.30;;;;;;;;;;5000070;28;20040;-65
2023/05/28 02:05:08;;;;;;;7.85;6.70;;;;;;;;;;4980851;28;20046;-65
2023/05/28 02:07:34;;;;;;;6.88;6.18;;;;;;;;;;4982548;28;20038;-65
2023/05/28 02:10:01;;;;;;;7.07;6.38;;;;;;;;;;5001745;28;20031;-65
2023/05/28 02:12:26;;;;;;;11.13;7.15;;;;;;;;;;4984065;28;20044;-65
2023/05/28 02:14:52;;;;;;;19.27;6.57;;;;;;;;;;5002795;28;20667;-65
2023/05/28 02:17:19;;;;;;;8.52;6.03;;;;;;;;;;4984195;28;20123;-65
2023/05/28 02:19:45;;;;;;;7.13;5.90;;;;;;;;;;4982999;28;20034;-65
2023/05/28 02:22:11;;;;;;;8.60;5.57;;;;;;;;;;4980763;28;20042;-64
2023/05/28 02:24:38;;;;;;;13.32;6.57;;;;;;;;;;5000604;28;20474;-64
2023/05/28 02:27:07;;;;;;;8.13;6.05;;;;;;;;;;4975148;28;20034;-64
2023/05/28 02:29:36;;;;;;;;;;;;;;;;;;4997324;28;20039;-63
2023/05/28 02:32:02;;;;;;;6.20;5.60;;;;;;;;;;4999301;28;19925;-65
2023/05/28 02:34:28;;;;;;;6.63;6.03;;;;;;;;;;4984875;28;20134;-65
2023/05/28 02:36:55;;;;;;;7.47;6.07;;;;;;;;;;4981449;28;20047;-65
2023/05/28 02:39:22;;;;;;;15.40;6.75;;;;;;;;;;4978487;28;20594;-65
2023/05/28 02:41:47;;;;;;;9.35;6.32;;;;;;;;;;4979324;28;20042;-65
2023/05/28 02:44:14;;;;;;;6.50;5.78;;;;;;;;;;5003324;28;20137;-65
2023/05/28 02:46:40;;;;;;;6.40;5.80;;;;;;;;;;5000813;28;20034;-65
2023/05/28 02:49:06;;;;;;;7.10;5.82;;;;;;;;;;4985576;28;20116;-65
2023/05/28 02:51:32;;;;;;;7.57;6.38;;;;;;;;;;4985884;28;20477;-65
2023/05/28 02:54:21;;;;;;;;;;;;;;;;;;4977698;28;20146;-66
2023/05/28 02:56:47;;;;;;;7.00;5.53;;;;;;;;;;5001707;28;19917;-64
2023/05/28 02:59:12;;;;;;;7.78;6.32;;;;;;;;;;4983677;28;20112;-65
2023/05/28 03:01:40;;;;;;;7.35;5.80;;;;;;;;;;4984415;28;20045;-65
2023/05/28 03:04:06;;;;;;;11.75;6.50;;;;;;;;;;4982506;28;20035;-64
2023/05/28 03:06:33;;;;;;;9.95;5.60;;;;;;;;;;5006318;28;20084;-65
2023/05/28 03:09:00;;;;;;;5.57;5.15;;;;;;;;;;4990872;28;20077;-65
2023/05/28 03:11:26;;;;;;;7.10;6.05;;;;;;;;;;4986165;28;20041;-65
2023/05/28 03:13:52;;;;;;;7.28;6.07;;;;;;;;;;4980368;28;20050;-67
2023/05/28 03:16:17;;;;;;;8.45;6.18;;;;;;;;;;4983256;28;20048;-67
2023/05/28 03:18:43;;;;;;;6.28;5.68;;;;;;;;;;4987471;28;20033;-67
2023/05/28 03:21:09;;;;;;;9.07;6.03;;;;;;;;;;4979906;28;20042;-67
2023/05/28 03:23:35;;;;;;;8.52;6.47;;;;;;;;;;4989191;28;20030;-67
2023/05/28 03:26:07;;;;;;;9.63;5.80;;;;;;;;;;4986409;28;20111;-67
2023/05/28 03:28:34;;;;;;;10.18;6.30;;;;;;;;;;4985602;28;20425;-67
2023/05/28 03:31:28;;;;;;;6.22;5.68;;;;;;;;;;4998300;28;20071;-67
2023/05/28 03:33:55;;;;;;;6.70;6.00;;;;;;;;;;4990695;28;20038;-67
2023/05/28 03:36:22;;;;;;;6.88;5.80;;;;;;;;;;5001737;28;20034;-67
2023/05/28 03:38:48;;;;;;;7.43;5.60;;;;;;;;;;4981063;28;20113;-67
2023/05/28 03:41:14;;;;;;;6.32;5.22;;;;;;;;;;4993537;28;20108;-67
2023/05/28 03:43:41;;;;;;;5.75;5.22;;;;;;;;;;4993362;28;20041;-67
2023/05/28 03:46:07;;;;;;;11.50;5.80;;;;;;;;;;4986665;28;20080;-67
2023/05/28 03:48:33;;;;;;;6.10;5.60;;;;;;;;;;5006374;28;20032;-67
2023/05/28 03:50:58;;;;;;;7.57;6.13;;;;;;;;;;4986600;28;20038;-67
2023/05/28 03:53:24;;;;;;;8.45;5.43;;;;;;;;;;4992236;28;20592;-67
2023/05/28 03:55:51;;;;;;;6.30;5.68;;;;;;;;;;4989431;28;20448;-67
2023/05/28 03:58:17;;;;;;;12.45;6.53;;;;;;;;;;4987301;28;20093;-67
2023/05/28 04:00:43;;;;;;;8.00;6.15;;;;;;;;;;4982254;28;20496;-67
2023/05/28 04:03:08;;;;;;;7.30;5.82;;;;;;;;;;4988900;28;20133;-67
2023/05/28 04:05:36;;;;;;;6.07;5.50;;;;;;;;;;4988904;28;20486;-67
2023/05/28 04:08:02;;;;;;;10.40;5.68;;;;;;;;;;4990272;28;20048;-68
2023/05/28 04:10:28;;;;;;;7.32;5.63;;;;;;;;;;4987072;28;20137;-67
2023/05/28 04:12:54;;;;;;;6.40;5.55;;;;;;;;;;4992665;28;20038;-67
2023/05/28 04:15:21;;;;;;;7.47;6.38;;;;;;;;;;4988323;28;20038;-67
2023/05/28 04:17:46;;;;;;;7.82;5.90;;;;;;;;;;4979352;28;20438;-67
2023/05/28 04:20:12;;;;;;;6.57;5.95;;;;;;;;;;5007462;28;20033;-67
2023/05/28 04:22:38;;;;;;;8.85;5.70;;;;;;;;;;4991798;28;20068;-67
2023/05/28 04:25:04;;;;;;;7.43;5.63;;;;;;;;;;5006007;28;20049;-67
2023/05/28 04:27:30;;;;;;;6.72;5.30;;;;;;;;;;4989043;28;20025;-67
2023/05/28 04:29:56;;;;;;;7.65;5.15;;;;;;;;;;4988457;28;20066;-68
2023/05/28 04:32:23;;;;;;;7.85;6.18;;;;;;;;;;4987875;28;20403;-67
2023/05/28 04:34:53;;;;;;;9.57;6.20;;;;;;;;;;4987824;28;20145;-67
2023/05/28 04:37:19;;;;;;;6.00;5.45;;;;;;;;;;5002672;28;20041;-67
2023/05/28 04:39:45;;;;;;;6.70;5.88;;;;;;;;;;4986113;28;20046;-67
2023/05/28 04:42:16;;;;;;;8.80;5.25;;;;;;;;;;4995320;28;20038;-68
2023/05/28 04:44:43;;;;;;;10.38;6.00;;;;;;;;;;5002124;28;20076;-67
2023/05/28 04:47:09;;;;;;;6.53;5.85;;;;;;;;;;4986858;28;20068;-67
2023/05/28 04:49:34;;;;;;;7.97;5.57;;;;;;;;;;5004282;28;20038;-67
2023/05/28 04:52:01;;;;;;;6.15;5.53;;;;;;;;;;4991693;28;20057;-67
2023/05/28 04:54:27;;;;;;;8.93;5.68;;;;;;;;;;5004680;28;20077;-67
2023/05/28 04:56:53;;;;;;;6.00;4.95;;;;;;;;;;5001371;28;20143;-67
2023/05/28 04:59:20;;;;;;;6.15;5.57;;;;;;;;;;4983665;28;20037;-67
2023/05/28 05:01:45;;;;;;;7.60;5.28;;;;;;;;;;4982995;28;20429;-67
2023/05/28 05:04:12;;;;;;;8.77;5.57;;;;;;;;;;4998499;28;20042;-67
2023/05/28 05:06:37;;;;;;;6.63;5.97;;;;;;;;;;4986597;28;20030;-67
2023/05/28 05:09:08;;;;;;;7.32;6.00;;;;;;;;;;4987039;28;20053;-67
2023/05/28 05:11:34;;;;;;;6.38;5.75;;;;;;;;;;4979447;28;20828;-67
2023/05/28 05:14:00;;;;;;;8.05;5.93;;;;;;;;;;4981288;28;20494;-67
2023/05/28 05:16:26;;;;;;;6.47;5.97;;;;;;;;;;5004101;28;20249;-67
2023/05/28 05:18:52;;;;;;;7.75;5.75;;;;;;;;;;4985147;28;20109;-67
2023/05/28 05:21:18;;;;;;;7.18;6.45;;;;;;;;;;5003067;28;20100;-67
2023/05/28 05:23:43;;;;;;;6.90;5.50;;;;;;;;;;4988119;28;20164;-67
2023/05/28 05:26:09;;;;;;;7.20;5.85;;;;;;;;;;4981174;28;20038;-68
2023/05/28 05:28:36;;;;;;;7.00;5.70;;;;;;;;;;4988396;28;20072;-68
2023/05/28 05:31:01;;;;;;;6.43;5.78;;;;;;;;;;4979388;28;20037;-67
2023/05/28 05:33:27;;;;;;;7.63;6.10;;;;;;;;;;4986100;28;20042;-67
2023/05/28 05:36:10;;;;;;;8.95;5.53;;;;;;;;;;4980766;28;20041;-67
2023/05/28 05:38:49;;;;;;;8.90;6.45;;;;;;;;;;4983714;28;20069;-67
2023/05/28 05:41:38;;;;;;;6.37;5.47;;;;;;;;;;5005028;28;20076;-67
2023/05/28 05:44:08;;;;;;;6.70;5.97;;;;;;;;;;4979491;28;20293;-67
2023/05/28 05:46:35;;;;;;;6.65;5.30;;;;;;;;;;4996923;28;20026;-68
2023/05/28 05:49:00;;;;;;;9.13;5.97;;;;;;;;;;4983928;28;20083;-67
2023/05/28 05:51:26;;;;;;;7.13;6.25;;;;;;;;;;5005846;28;20034;-68
2023/05/28 05:53:52;;;;;;;6.03;5.43;;;;;;;;;;4981945;28;20038;-67
2023/05/28 05:56:18;;;;;;;6.47;5.75;;;;;;;;;;4982454;28;20044;-67
2023/05/28 05:58:43;;;;;;;7.07;5.50;;;;;;;;;;4981204;28;20038;-67
2023/05/28 06:01:16;;;;;;;9.55;5.80;;;;;;;;;;4984997;28;20034;-67
2023/05/28 06:03:42;;;;;;;7.57;6.10;;;;;;;;;;4982774;28;20034;-68
2023/05/28 06:06:36;;;;;;;7.43;5.28;;;;;;;;;;5000992;28;20041;-67
2023/05/28 06:09:15;;;;;;;8.05;5.47;;;;;;;;;;4985307;28;20061;-67
2023/05/28 06:11:49;;;;;;;7.32;5.53;;;;;;;;;;4978826;28;20034;-67
2023/05/28 06:14:16;;;;;;;7.22;5.07;;;;;;;;;;4988181;28;20593;-67
2023/05/28 06:16:42;;;;;;;7.85;5.72;;;;;;;;;;4982537;28;20057;-67
2023/05/28 06:19:07;;;;;;;11.07;5.30;;;;;;;;;;4978286;28;20038;-67
2023/05/28 06:21:36;;;;;;;6.28;5.10;;;;;;;;;;4983730;28;20034;-66
2023/05/28 06:24:03;;;;;;;7.03;5.57;;;;;;;;;;4982854;28;20042;-67
2023/05/28 06:26:29;;;;;;;10.70;5.68;;;;;;;;;;4983433;28;20045;-67
2023/05/28 06:28:55;;;;;;;7.40;5.22;;;;;;;;;;4983542;28;20064;-67
2023/05/28 06:31:22;;;;;;;6.30;5.47;;;;;;;;;;4984960;28;20030;-67
2023/05/28 06:33:48;;;;;;;8.30;5.47;;;;;;;;;;4984326;28;20037;-67
2023/05/28 06:36:14;;;;;;;10.35;5.05;;;;;;;;;;5004957;28;20034;-67
2023/05/28 06:38:39;;;;;;;7.80;5.55;;;;;;;;;;4974571;28;20038;-67
2023/05/28 06:41:05;;;;;;;5.88;4.90;;;;;;;;;;4981526;28;20485;-67
2023/05/28 06:43:38;;;;;;;11.32;5.22;;;;;;;;;;4988206;28;20307;-67
2023/05/28 06:46:09;;;;;;;7.25;5.13;;;;;;;;;;4982159;28;20036;-67
2023/05/28 06:48:35;;;;;;;7.95;5.10;;;;;;;;;;5002903;28;20034;-67
2023/05/28 06:51:00;;;;;;;11.10;5.15;;;;;;;;;;4979087;28;20030;-67
2023/05/28 06:53:26;;;;;;;8.90;5.20;;;;;;;;;;4979961;28;20508;-67
2023/05/28 06:55:52;;;;;;;7.05;5.32;;;;;;;;;;4986267;28;20109;-67
2023/05/28 06:58:44;;;;;;;5.72;4.55;;;;;;;;;;5001351;28;20104;-67
2023/05/28 07:01:28;;;;;;;7.38;5.10;;;;;;;;;;5000119;28;20040;-67
2023/05/28 07:04:07;;;;;;;7.60;5.28;;;;;;;;;;4975315;28;20041;-67
2023/05/28 07:06:42;;;;;;;6.38;4.78;;;;;;;;;;4980946;28;20034;-67
2023/05/28 07:09:13;;;;;;;7.28;5.07;;;;;;;;;;4982219;28;20121;-67
2023/05/28 07:11:39;;;;;;;6.97;4.85;;;;;;;;;;5008574;28;20061;-67
2023/05/28 07:14:05;;;;;;;10.10;5.20;;;;;;;;;;4983449;28;20132;-67
2023/05/28 07:16:31;;;;;;;6.10;4.22;;;;;;;;;;4987888;28;20030;-67
2023/05/28 07:18:57;;;;;;;6.78;4.35;;;;;;;;;;4989747;28;20033;-67
2023/05/28 07:21:25;;;;;;;7.03;4.45;;;;;;;;;;4980442;28;20038;-67
2023/05/28 07:23:51;;;;;;;6.00;4.35;;;;;;;;;;4984373;28;20029;-67
2023/05/28 07:26:16;;;;;;;7.30;4.10;;;;;;;;;;4987335;28;20045;-67
2023/05/28 07:28:42;;;;;;;8.32;4.20;;;;;;;;;;5002236;28;20033;-67
2023/05/28 07:31:08;;;;;;;7.47;4.10;;;;;;;;;;4968002;28;20040;-67
2023/05/28 07:33:33;;;;;;;7.15;4.25;;;;;;;;;;5002309;28;20034;-67
2023/05/28 07:36:00;;;;;;;4.82;4.03;;;;;;;;;;4981304;28;20042;-67
2023/05/28 07:38:26;;;;;;;5.90;4.28;;;;;;;;;;4981581;28;20312;-67
2023/05/28 07:40:55;;;;;;;5.05;3.90;;;;;;;;;;4982477;28;20034;-66
2023/05/28 07:43:43;;;;;;;7.50;4.88;;;;;;;;;;4985280;28;20080;-67
2023/05/28 07:46:18;;;;;;;8.15;4.45;;;;;;;;;;4985136;28;20121;-66
2023/05/28 07:48:49;;;;;;;6.88;3.95;;;;;;;;;;4978889;28;20038;-67
2023/05/28 07:51:26;;;;;;;6.53;4.40;;;;;;;;;;4982536;28;20117;-66
2023/05/28 07:54:05;;;;;;;5.93;4.25;;;;;;;;;;4983980;28;20042;-67
2023/05/28 07:56:31;;;;;;;7.78;4.22;;;;;;;;;;4981933;28;20030;-67
2023/05/28 07:58:57;;;;;;;5.82;4.40;;;;;;;;;;4979735;28;20041;-66
2023/05/28 08:01:23;;;;;;;5.15;4.47;;;;;;;;;;5005028;28;20042;-66
2023/05/28 08:03:51;;;;;;;7.68;4.07;;;;;;;;;;4987220;28;20038;-67
2023/05/28 08:06:20;;;;;;;8.68;4.47;;;;;;;;;;4984043;28;20103;-66
2023/05/28 08:08:46;;;;;;;4.70;4.10;;;;;;;;;;4985182;28;20030;-66
2023/05/28 08:11:13;;;;;;;6.32;4.38;;;;;;;;;;4981962;28;20116;-66
2023/05/28 08:13:39;;;;;;;8.15;4.35;;;;;;;;;;5002777;28;20420;-66
2023/05/28 08:16:06;;;;;;;7.03;4.18;;;;;;;;;;4985119;28;20061;-67
2023/05/28 08:18:46;;;;;;;6.53;3.97;;;;;;;;;;4978880;28;20441;-66
2023/05/28 08:21:12;;;;;;;7.30;3.60;;;;;;;;;;4983458;28;20030;-66
2023/05/28 08:23:38;;;;;;;8.25;4.45;;;;;;;;;;4986958;28;20055;-66
2023/05/28 08:26:07;;;;;;;7.22;4.00;;;;;;;;;;4984215;28;20038;-67
2023/05/28 08:28:33;;;;;;;6.38;3.97;;;;;;;;;;4985972;28;20045;-66
2023/05/28 08:30:59;;;;;;;4.55;3.42;;;;;;;;;;4984758;28;20543;-66
2023/05/28 08:33:44;;;;;;;6.28;4.07;;;;;;;;;;4977550;28;20045;-66
2023/05/28 08:36:10;;;;;;;6.70;3.63;;;;;;;;;;4986453;28;20033;-66
2023/05/28 08:38:36;;;;;;;5.22;3.80;;;;;;;;;;4983410;28;20040;-67
2023/05/28 08:41:03;;;;;;;6.75;3.78;;;;;;;;;;4983682;28;20038;-66
2023/05/28 08:43:28;;;;;;;5.82;3.55;;;;;;;;;;4985979;28;20042;-67
2023/05/28 08:45:56;;;;;;;3.65;3.33;;;;;;;;;;4979976;28;20072;-66
2023/05/28 08:48:40;;;;;;;5.85;3.65;;;;;;;;;;4978794;28;20038;-67
2023/05/28 08:51:06;;;;;;;5.35;4.07;;;;;;;;;;5001961;28;20092;-67
2023/05/28 08:53:40;;;;;;;6.97;3.63;;;;;;;;;;4978929;28;20036;-66
2023/05/28 08:56:08;;;;;;;7.40;3.83;;;;;;;;;;5001394;28;20042;-71
2023/05/28 08:58:41;;;;;;;5.70;4.15;;;;;;;;;;4981013;28;20034;-67
2023/05/28 09:01:10;;;;;;;8.18;4.10;;;;;;;;;;5002576;28;20105;-67
2023/05/28 09:03:45;;;;;;;7.50;4.22;;;;;;;;;;4984260;28;20042;-67
2023/05/28 09:06:20;;;;;;;4.90;3.60;;;;;;;;;;4965630;28;20046;-66
2023/05/28 09:08:45;;;;;;;6.60;3.90;;;;;;;;;;4982540;28;20036;-73
2023/05/28 09:11:19;;;;;;;4.90;3.80;;;;;;;;;;4980804;28;20068;-67
2023/05/28 09:13:47;;;;;;;6.72;3.90;;;;;;;;;;5001608;28;20123;-63
2023/05/28 09:16:21;;;;;;;4.68;3.75;;;;;;;;;;4981597;28;20034;-68
2023/05/28 09:19:02;;;;;;;5.63;4.10;;;;;;;;;;4978825;28;20041;-71
2023/05/28 09:21:28;;;;;;;6.60;3.90;;;;;;;;;;4981879;28;20061;-71
2023/05/28 09:23:54;;;;;;;6.85;4.35;;;;;;;;;;5002906;28;20478;-71
2023/05/28 09:26:33;;;;;;;6.97;4.38;;;;;;;;;;4994954;28;20061;-71
2023/05/28 09:29:14;;;;;;;9.50;4.20;;;;;;;;;;4975214;28;20073;-71
2023/05/28 09:31:40;;;;;;;7.93;4.80;;;;;;;;;;4999560;28;20061;-71
2023/05/28 09:34:06;;;;;;;5.68;4.40;;;;;;;;;;4995697;28;20038;-71
2023/05/28 09:36:36;;;;;;;5.40;4.75;;;;;;;;;;5003834;28;20038;-71
2023/05/28 09:39:07;;;;;;;6.28;3.92;;;;;;;;;;4998589;28;20038;-67
2023/05/28 09:41:33;;;;;;;6.55;4.70;;;;;;;;;;4993840;28;20540;-72
2023/05/28 09:44:01;;;;;;;5.47;4.25;;;;;;;;;;4997326;28;20157;-73
2023/05/28 09:46:34;;;;;;;6.72;4.45;;;;;;;;;;4998510;28;20042;-73
2023/05/28 09:49:02;;;;;;;5.35;4.25;;;;;;;;;;4995265;28;20037;-66
2023/05/28 09:51:35;;;;;;;6.63;4.25;;;;;;;;;;5077093;27;20420;-67
2023/05/28 09:54:04;;;;;;;4.10;3.70;;;;;;;;;;5085433;28;20415;-65
2023/05/28 09:56:32;;;;;;;9.27;4.20;;;;;;;;;;5083543;28;20486;-65
2023/05/28 09:59:00;;;;;;;6.30;4.07;;;;;;;;;;5077453;28;20032;-65
2023/05/28 10:01:51;;;;;;;5.88;3.80;;;;;;;;;;5077860;28;20062;-65
2023/05/28 10:04:20;;;;;;;5.25;3.80;;;;;;;;;;5077657;28;20039;-65
2023/05/28 10:06:46;;;;;;;7.47;3.72;;;;;;;;;;5078432;28;20040;-65
2023/05/28 10:09:15;;;;;;;4.95;3.80;;;;;;;;;;5077114;28;20046;-64
2023/05/28 10:11:51;;;;;;;6.72;4.30;;;;;;;;;;5078716;28;20127;-66
2023/05/28 10:14:17;;;;;;;6.15;3.75;;;;;;;;;;5078115;28;20045;-64
2023/05/28 10:16:43;;;;;;;8.15;3.90;;;;;;;;;;5076475;28;20032;-67
2023/05/28 10:19:09;;;;;;;7.03;3.90;;;;;;;;;;5080943;28;20135;-65
2023/05/28 10:21:36;;;;;;;4.20;3.70;;;;;;;;;;5080505;28;20101;-67
2023/05/28 10:24:03;;;;;;;6.75;3.90;;;;;;;;;;5080045;28;20063;-66
2023/05/28 10:26:29;;;;;;;7.65;3.75;;;;;;;;;;5076965;28;20032;-67
2023/05/28 10:28:56;;;;;;;4.03;3.58;;;;;;;;;;5080419;28;20044;-66
2023/05/28 10:31:22;;;;;;;5.70;3.92;;;;;;;;;;5080146;28;20029;-66
2023/05/28 10:33:48;;;;;;;4.05;3.13;;;;;;;;;;5077276;28;20097;-67
2023/05/28 10:36:15;;;;;;;4.72;3.80;;;;;;;;;;5080450;28;20036;-67
2023/05/28 10:38:44;;;;;;;6.90;3.22;;;;;;;;;;5080755;28;20071;-67
2023/05/28 10:41:10;;;;;;;5.55;3.72;;;;;;;;;;5078978;28;20739;-67
2023/05/28 10:43:38;;;;;;;5.90;3.50;;;;;;;;;;5077615;28;20063;-67
2023/05/28 10:46:08;;;;;;;;;;;;;;;;;;5078711;28;20048;-67
2023/05/28 10:48:41;;;;;;;4.35;3.15;;;;;;;;;;5076341;28;19969;-66
2023/05/28 10:51:07;;;;;;;7.30;3.72;;;;;;;;;;5069429;28;20082;-67
2023/05/28 10:53:33;;;;;;;5.18;3.50;;;;;;;;;;5075648;28;20395;-66
2023/05/28 10:56:01;;;;;;;6.80;3.80;;;;;;;;;;5074813;28;20039;-65
2023/05/28 10:58:35;;;;;;;4.43;3.63;;;;;;;;;;5076045;28;20131;-65
2023/05/28 11:01:10;;;;;;;4.18;3.53;;;;;;;;;;5067997;28;20162;-65
2023/05/28 11:03:47;;;;;;;4.78;3.85;;;;;;;;;;5064103;28;20419;-65
2023/05/28 11:06:13;;;;;;;3.83;3.42;;;;;;;;;;5063233;28;20060;-66
2023/05/28 11:08:45;;;;;;;5.32;3.40;;;;;;;;;;5058711;28;20039;-64
2023/05/28 11:11:12;;;;;;;6.13;3.20;;;;;;;;;;5064138;28;20174;-65
2023/05/28 11:13:38;;;;;;;6.20;3.65;;;;;;;;;;5055400;28;20530;-64
2023/05/28 11:16:09;;;;;;;5.13;3.47;;;;;;;;;;5057831;28;20040;-64
2023/05/28 11:18:34;;;;;;;7.18;4.00;;;;;;;;;;5056690;28;20036;-64
2023/05/28 11:21:07;;;;;;;5.32;3.78;;;;;;;;;;5058393;28;20090;-64
2023/05/28 11:23:36;;;;;;;5.65;3.53;;;;;;;;;;5061795;28;20137;-64
2023/05/28 11:26:03;;;;;;;3.50;3.13;;;;;;;;;;5058098;28;20036;-64
2023/05/28 11:28:30;;;;;;;9.15;3.92;;;;;;;;;;5060540;28;20036;-64
2023/05/28 11:30:57;;;;;;;4.65;4.00;;;;;;;;;;5056972;28;20028;-64
2023/05/28 11:33:26;;;;;;;8.30;4.20;;;;;;;;;;5056367;28;20119;-66
2023/05/28 11:36:01;;;;;;;7.35;4.30;;;;;;;;;;5050605;28;20040;-67
2023/05/28 11:38:28;;;;;;;5.35;3.70;;;;;;;;;;5055630;28;20044;-66
2023/05/28 11:41:01;;;;;;;5.05;3.80;;;;;;;;;;5061160;28;20492;-66
2023/05/28 11:43:27;;;;;;;6.30;3.55;;;;;;;;;;5058662;28;20559;-66
2023/05/28 11:45:59;;;;;;;5.45;3.67;;;;;;;;;;5054330;28;20036;-66
2023/05/28 11:48:27;;;;;;;7.13;4.03;;;;;;;;;;5058845;28;20580;-67
2023/05/28 11:51:00;;;;;;;4.93;4.00;;;;;;;;;;5058334;28;20037;-66
2023/05/28 11:53:43;;;;;;;6.43;3.80;;;;;;;;;;5059166;28;20043;-66
2023/05/28 11:56:10;;;;;;;8.55;4.10;;;;;;;;;;5054744;28;20564;-67
2023/05/28 11:58:41;;;;;;;5.65;4.15;;;;;;;;;;5056677;28;20039;-66
2023/05/28 12:01:07;;;;;;;5.22;3.85;;;;;;;;;;5058975;28;20551;-66
2023/05/28 12:03:34;;;;;;;5.43;3.95;;;;;;;;;;5057345;28;20091;-67
2023/05/28 12:05:59;;;;;;;6.30;3.97;;;;;;;;;;5061278;28;20032;-67
2023/05/28 12:08:28;;;;;;;5.18;4.10;;;;;;;;;;5057388;28;20460;-66
2023/05/28 12:11:02;;;;;;;6.13;4.00;;;;;;;;;;5056897;28;20052;-66
2023/05/28 12:13:33;;;;;;;6.93;3.95;;;;;;;;;;5057901;28;20047;-65
2023/05/28 12:16:06;;;;;;;4.07;3.72;;;;;;;;;;5059137;28;20089;-66
2023/05/28 12:18:32;;;;;;;8.38;3.90;;;;;;;;;;5059624;28;20751;-65
2023/05/28 12:20:58;;;;;;;6.13;4.43;;;;;;;;;;5053089;28;20054;-65
2023/05/28 12:23:23;;;;;;;5.22;3.83;;;;;;;;;;5057013;28;20055;-65
2023/05/28 12:25:50;;;;;;;8.00;4.40;;;;;;;;;;5057989;28;20040;-65
2023/05/28 12:28:20;;;;;;;6.05;4.43;;;;;;;;;;5064791;28;20032;-65
2023/05/28 12:30:50;;;;;;;9.15;4.90;;;;;;;;;;5057902;28;20099;-65
2023/05/28 12:33:16;;;;;;;7.18;3.85;;;;;;;;;;5055592;28;20825;-65
2023/05/28 12:35:42;;;;;;;5.20;4.22;;;;;;;;;;5060661;28;20036;-66
2023/05/28 12:38:08;;;;;;;5.32;4.00;;;;;;;;;;5059862;28;20044;-65
2023/05/28 12:40:34;;;;;;;6.82;4.47;;;;;;;;;;5060371;28;20036;-65
2023/05/28 12:43:00;;;;;;;4.50;4.10;;;;;;;;;;5058372;28;20035;-65
2023/05/28 12:45:27;;;;;;;5.85;4.63;;;;;;;;;;5059382;28;20041;-66
2023/05/28 12:47:52;;;;;;;7.03;4.57;;;;;;;;;;5060792;28;20033;-65
2023/05/28 12:50:20;;;;;;;6.60;4.38;;;;;;;;;;5055941;28;20032;-65
2023/05/28 12:52:45;;;;;;;5.85;4.40;;;;;;;;;;5058995;28;20033;-65
2023/05/28 12:55:11;;;;;;;5.20;4.25;;;;;;;;;;5060019;28;20450;-65
2023/05/28 12:57:36;;;;;;;4.78;4.22;;;;;;;;;;5056249;28;20040;-65
2023/05/28 13:00:10;;;;;;;6.38;4.90;;;;;;;;;;5055304;28;20685;-65
2023/05/28 13:02:36;;;;;;;4.90;4.50;;;;;;;;;;5056737;28;20036;-65
2023/05/28 13:05:03;;;;;;;5.30;4.80;;;;;;;;;;5057126;28;20060;-65
2023/05/28 13:07:28;;;;;;;5.72;4.57;;;;;;;;;;5055427;28;20032;-66
2023/05/28 13:09:54;;;;;;;5.15;4.43;;;;;;;;;;5057399;28;20303;-66
2023/05/28 13:12:19;;;;;;;5.38;4.35;;;;;;;;;;5059268;28;20675;-65
2023/05/28 13:14:45;;;;;;;4.55;4.18;;;;;;;;;;5058013;28;20032;-64
2023/05/28 13:17:10;;;;;;;5.78;4.53;;;;;;;;;;5059603;28;20032;-64
2023/05/28 13:19:36;;;;;;;7.25;5.55;;;;;;;;;;5054512;28;20037;-65
2023/05/28 13:22:02;;;;;;;4.53;4.13;;;;;;;;;;5060886;28;20047;-65
2023/05/28 13:24:27;;;;;;;4.75;4.28;;;;;;;;;;5058468;28;20045;-65
2023/05/28 13:26:53;;;;;;;5.78;4.80;;;;;;;;;;5061893;28;20043;-65
2023/05/28 13:29:19;;;;;;;6.97;4.72;;;;;;;;;;5059509;28;20040;-65
2023/05/28 13:31:44;;;;;;;5.65;4.63;;;;;;;;;;5059915;28;20028;-65
2023/05/28 13:34:10;;;;;;;4.20;3.90;;;;;;;;;;5050946;28;20035;-64
2023/05/28 13:36:36;;;;;;;5.50;4.15;;;;;;;;;;5059089;28;20044;-65
2023/05/28 13:39:03;;;;;;;5.88;4.40;;;;;;;;;;5059742;28;20447;-64
2023/05/28 13:41:29;;;;;;;5.65;4.40;;;;;;;;;;5056466;28;20029;-63
2023/05/28 13:43:54;;;;;;;5.25;4.30;;;;;;;;;;5060224;28;20028;-63
2023/05/28 13:46:21;;;;;;;7.80;4.65;;;;;;;;;;5043976;28;20036;-63
2023/05/28 13:48:47;;;;;;;5.45;4.47;;;;;;;;;;5062228;28;20033;-63
2023/05/28 13:51:13;;;;;;;6.47;4.60;;;;;;;;;;5059023;28;20204;-62
2023/05/28 13:53:40;;;;;;;6.43;4.50;;;;;;;;;;5060158;28;20078;-63
2023/05/28 13:56:05;;;;;;;4.97;4.47;;;;;;;;;;5063267;28;20040;-63
2023/05/28 13:58:31;;;;;;;4.80;4.40;;;;;;;;;;5060542;28;20404;-62
2023/05/28 14:00:56;;;;;;;6.88;5.00;;;;;;;;;;5057845;28;20303;-63
2023/05/28 14:03:22;;;;;;;5.88;4.85;;;;;;;;;;5061001;28;20508;-63
2023/05/28 14:05:48;;;;;;;5.20;4.70;;;;;;;;;;5061406;28;20033;-63
2023/05/28 14:08:13;;;;;;;4.82;4.35;;;;;;;;;;5058258;28;20090;-63
2023/05/28 14:10:40;;;;;;;5.55;5.05;;;;;;;;;;5060991;28;20106;-63
2023/05/28 14:13:05;;;;;;;6.60;5.25;;;;;;;;;;5061300;28;20075;-63
2023/05/28 14:15:31;;;;;;;6.47;5.05;;;;;;;;;;5060280;28;20064;-62
2023/05/28 14:17:58;;;;;;;6.78;4.88;;;;;;;;;;5059617;28;20496;-64
2023/05/28 14:20:23;;;;;;;5.95;5.18;;;;;;;;;;5059571;28;20028;-63
2023/05/28 14:22:50;;;;;;;7.72;4.68;;;;;;;;;;5061544;28;20739;-63
2023/05/28 14:25:15;;;;;;;5.38;4.85;;;;;;;;;;5060996;28;20121;-63
2023/05/28 14:27:41;;;;;;;9.02;4.80;;;;;;;;;;5056761;28;20436;-63
2023/05/28 14:30:08;;;;;;;5.95;4.78;;;;;;;;;;5060817;28;20028;-63
2023/05/28 14:32:35;;;;;;;5.70;5.10;;;;;;;;;;5042891;28;20512;-63
2023/05/28 14:35:01;;;;;;;6.95;4.53;;;;;;;;;;5058147;28;20033;-62
2023/05/28 14:37:27;;;;;;;5.13;4.50;;;;;;;;;;5063285;28;20044;-62
2023/05/28 14:39:53;;;;;;;5.05;4.35;;;;;;;;;;5065789;28;20051;-62
2023/05/28 14:42:18;;;;;;;9.40;4.63;;;;;;;;;;5062664;28;20039;-62
2023/05/28 14:44:45;;;;;;;5.38;4.65;;;;;;;;;;5061851;28;20483;-63
2023/05/28 14:47:10;;;;;;;6.18;4.78;;;;;;;;;;5064934;28;20123;-63